createdAt,value
2019-01-13T00:00:40.687Z,6.70
2019-01-13T00:05:36.575Z,4.90
2019-01-13T00:10:32.491Z,7.20
2019-01-13T00:15:28.398Z,4.40
2019-01-13T00:20:24.395Z,13.83
2019-01-13T00:25:20.457Z,7.57
2019-01-13T00:30:19.379Z,4.80
2019-01-13T00:35:16.548Z,5.13
2019-01-13T00:40:17.026Z,4.77
2019-01-13T00:45:13.805Z,8.00
2019-01-13T00:50:14.033Z,3.93
2019-01-13T00:55:11.636Z,3.07
2019-01-13T01:00:14.499Z,4.10
2019-01-13T01:05:10.516Z,3.80
2019-01-13T01:10:09.625Z,4.10
2019-01-13T01:15:08.637Z,7.20
2019-01-13T01:20:08.054Z,3.80
2019-01-13T01:25:05.960Z,2.20
2019-01-13T01:30:05.690Z,4.13
2019-01-13T01:35:01.966Z,3.63
2019-01-13T01:39:57.936Z,3.77
2019-01-13T01:44:53.855Z,4.87
2019-01-13T01:49:50.472Z,4.00
2019-01-13T01:54:46.457Z,4.80
2019-01-13T01:59:42.579Z,4.03
2019-01-13T02:04:38.513Z,4.60
2019-01-13T02:09:34.616Z,5.67
2019-01-13T02:14:31.141Z,4.70
2019-01-13T02:19:33.322Z,6.03
2019-01-13T02:24:29.199Z,7.20
2019-01-13T02:29:25.151Z,4.90
2019-01-13T02:34:21.687Z,6.00
2019-01-13T02:39:17.577Z,5.50
2019-01-13T02:44:13.485Z,7.07
2019-01-13T02:49:10.190Z,8.93
2019-01-13T02:54:06.204Z,5.10
2019-01-13T02:59:02.146Z,8.33
2019-01-13T03:03:58.057Z,8.70
2019-01-13T03:08:53.979Z,9.60
2019-01-13T03:13:49.905Z,4.60
2019-01-13T03:18:47.478Z,8.67
2019-01-13T03:23:43.582Z,9.30
2019-01-13T03:28:39.504Z,7.80
2019-01-13T03:33:35.411Z,7.60
2019-01-13T03:38:31.327Z,5.30
2019-01-13T03:43:27.529Z,6.10
2019-01-13T03:48:23.432Z,9.53
2019-01-13T03:53:19.338Z,8.70
2019-01-13T03:58:15.244Z,8.50
2019-01-13T04:03:11.145Z,6.60
2019-01-13T04:08:07.048Z,8.30
2019-01-13T04:13:03.621Z,7.23
2019-01-13T04:17:59.592Z,8.13
2019-01-13T04:22:55.537Z,11.80
2019-01-13T04:27:51.441Z,9.87
2019-01-13T04:32:47.340Z,7.63
2019-01-13T04:37:43.243Z,13.40
2019-01-13T04:42:39.144Z,15.60
2019-01-13T04:47:35.118Z,15.63
2019-01-13T04:52:31.025Z,14.83
2019-01-13T04:57:26.930Z,14.73
2019-01-13T05:02:22.863Z,14.70
2019-01-13T05:07:18.879Z,9.60
2019-01-13T05:12:14.778Z,12.73
2019-01-13T05:17:10.684Z,8.73
2019-01-13T05:22:06.687Z,9.90
2019-01-13T05:27:02.724Z,13.97
2019-01-13T05:31:58.632Z,11.53
2019-01-13T05:36:54.743Z,12.57
2019-01-13T05:41:50.625Z,13.03
2019-01-13T05:46:46.529Z,7.13
2019-01-13T05:51:42.619Z,6.73
2019-01-13T05:56:38.520Z,7.67
2019-01-13T06:01:35.038Z,10.57
2019-01-13T06:06:30.909Z,12.50
2019-01-13T06:11:27.032Z,7.10
2019-01-13T06:16:22.895Z,12.40
2019-01-13T06:21:18.799Z,7.50
2019-01-13T06:26:14.698Z,8.80
2019-01-13T06:31:10.601Z,15.57
2019-01-13T06:36:06.587Z,13.87
2019-01-13T06:41:02.940Z,10.20
2019-01-13T06:45:58.844Z,11.70
2019-01-13T06:50:54.816Z,7.80
2019-01-13T06:55:50.715Z,11.83
2019-01-13T07:00:46.701Z,11.47
2019-01-13T07:05:42.631Z,8.73
2019-01-13T07:10:38.630Z,12.30
2019-01-13T07:15:34.531Z,12.07
2019-01-13T07:20:30.465Z,9.13
2019-01-13T07:25:26.369Z,14.03
2019-01-13T07:30:22.436Z,15.27
2019-01-13T07:35:18.480Z,11.37
2019-01-13T07:40:16.999Z,14.30
2019-01-13T07:45:15.408Z,14.03
2019-01-13T07:50:13.610Z,6.70
2019-01-13T07:55:15.989Z,13.30
2019-01-13T08:00:20.899Z,10.47
2019-01-13T08:05:16.932Z,8.97
2019-01-13T08:10:14.043Z,13.20
2019-01-13T08:15:18.679Z,13.33
2019-01-13T08:20:23.386Z,8.50
2019-01-13T08:25:19.991Z,12.40
2019-01-13T08:30:18.177Z,10.73
2019-01-13T08:35:14.589Z,12.83
2019-01-13T08:40:13.997Z,6.50
2019-01-13T08:45:10.515Z,10.20
2019-01-13T08:50:14.908Z,9.93
2019-01-13T08:55:12.200Z,9.90
2019-01-13T09:00:15.260Z,8.63
2019-01-13T09:05:11.381Z,5.77
2019-01-13T09:10:11.238Z,9.63
2019-01-13T09:15:11.602Z,5.53
2019-01-13T09:20:13.863Z,6.17
2019-01-13T09:25:10.455Z,4.90
2019-01-13T09:30:13.819Z,5.47
2019-01-13T09:35:10.324Z,4.80
2019-01-13T09:40:10.131Z,4.47
2019-01-13T09:45:10.614Z,3.07
2019-01-13T09:50:10.749Z,4.63
2019-01-13T09:55:12.570Z,3.57
2019-01-13T10:00:15.095Z,3.93
2019-01-13T10:05:11.565Z,4.40
2019-01-13T10:10:10.262Z,2.40
2019-01-13T10:15:09.774Z,4.70
2019-01-13T10:20:14.352Z,3.10
2019-01-13T10:25:10.715Z,4.00
2019-01-13T10:30:10.375Z,3.50
2019-01-13T10:35:10.939Z,2.40
2019-01-13T10:40:10.862Z,2.50
2019-01-13T10:45:10.080Z,2.40
2019-01-13T10:50:18.700Z,2.10
2019-01-13T10:55:15.562Z,2.53
2019-01-13T11:00:17.915Z,2.30
2019-01-13T11:05:13.974Z,1.43
2019-01-13T11:10:12.886Z,2.20
2019-01-13T11:15:11.818Z,2.50
2019-01-13T11:20:19.835Z,1.77
2019-01-13T11:25:16.056Z,1.00
2019-01-13T11:30:22.643Z,1.93
2019-01-13T11:35:20.194Z,1.13
2019-01-13T11:40:18.867Z,1.00
2019-01-13T11:45:14.971Z,1.30
2019-01-13T11:50:17.234Z,1.33
2019-01-13T11:55:15.008Z,2.33
2019-01-13T12:00:23.803Z,2.17
2019-01-13T12:05:19.815Z,1.90
2019-01-13T12:10:19.873Z,2.13
2019-01-13T12:15:17.895Z,1.50
2019-01-13T12:20:23.781Z,1.07
2019-01-13T12:25:21.998Z,1.43
2019-01-13T12:30:29.360Z,1.13
2019-01-13T12:35:26.048Z,1.30
2019-01-13T12:40:24.357Z,1.60
2019-01-13T12:45:21.843Z,2.20
2019-01-13T12:50:28.676Z,1.83
2019-01-13T12:55:24.987Z,1.90
2019-01-13T13:00:21.346Z,1.13
2019-01-13T13:05:18.183Z,1.27
2019-01-13T13:10:25.209Z,1.50
2019-01-13T13:15:21.532Z,1.30
2019-01-13T13:20:18.784Z,1.17
2019-01-13T13:25:14.944Z,1.10
2019-01-13T13:30:17.177Z,1.20
2019-01-13T13:35:13.369Z,1.50
2019-01-13T13:40:13.203Z,1.63
2019-01-13T13:45:09.949Z,1.83
2019-01-13T13:50:18.545Z,1.03
2019-01-13T13:55:15.333Z,1.50
2019-01-13T14:00:21.440Z,1.27
2019-01-13T14:05:17.437Z,1.13
2019-01-13T14:10:43.187Z,1.33
2019-01-13T14:15:39.184Z,1.23
2019-01-13T14:20:35.189Z,1.27
2019-01-13T14:25:31.181Z,1.27
2019-01-13T14:30:27.292Z,2.00
2019-01-13T14:35:23.590Z,1.47
2019-01-13T14:40:22.056Z,1.10
2019-01-13T14:45:20.166Z,1.63
2019-01-13T14:50:20.159Z,1.30
2019-01-13T14:55:16.337Z,0.93
2019-01-13T15:00:15.648Z,1.33
2019-01-13T15:05:12.644Z,2.20
2019-01-13T15:10:11.977Z,1.43
2019-01-13T15:15:10.362Z,1.03
2019-01-13T15:20:09.807Z,1.17
2019-01-13T15:25:08.726Z,1.00
2019-01-13T15:30:11.217Z,1.50
2019-01-13T15:35:07.326Z,2.00
2019-01-13T15:40:07.027Z,2.20
2019-01-13T15:45:07.203Z,1.33
2019-01-13T15:50:10.163Z,2.10
2019-01-13T15:55:06.565Z,2.23
2019-01-13T16:00:10.571Z,2.00
2019-01-13T16:05:06.905Z,2.27
2019-01-13T16:10:07.372Z,1.43
2019-01-13T16:15:07.593Z,2.20
2019-01-13T16:20:18.727Z,3.57
2019-01-13T16:25:15.101Z,3.50
2019-01-13T16:30:18.966Z,2.93
2019-01-13T16:35:15.652Z,4.50
2019-01-13T16:40:14.441Z,2.23
2019-01-13T16:45:13.024Z,2.87
2019-01-13T16:50:17.165Z,3.57
2019-01-13T16:55:13.547Z,2.53
2019-01-13T17:00:13.338Z,2.03
2019-01-13T17:05:11.699Z,3.90
2019-01-13T17:10:10.899Z,2.13
2019-01-13T17:15:12.167Z,3.47
2019-01-13T17:20:17.454Z,4.50
2019-01-13T17:25:22.656Z,3.93
2019-01-13T17:30:24.416Z,3.33
2019-01-13T17:35:21.281Z,2.37
2019-01-13T17:40:23.549Z,1.50
2019-01-13T17:45:26.938Z,0.90
2019-01-13T17:50:28.440Z,1.40
2019-01-13T17:55:27.278Z,1.50
2019-01-13T18:00:33.168Z,1.77
2019-01-13T18:05:31.617Z,1.50
2019-01-13T18:10:28.277Z,1.57
2019-01-13T18:15:25.465Z,1.40
2019-01-13T18:20:24.277Z,1.67
2019-01-13T18:25:22.385Z,1.20
2019-01-13T18:30:23.293Z,1.17
2019-01-13T18:35:22.536Z,2.50
2019-01-13T18:40:20.791Z,1.00
2019-01-13T18:45:17.765Z,1.30
2019-01-13T18:50:21.588Z,1.10
2019-01-13T18:55:18.250Z,1.80
2019-01-13T19:00:21.652Z,1.97
2019-01-13T19:05:21.687Z,1.90
2019-01-13T19:10:25.976Z,1.40
2019-01-13T19:15:23.204Z,1.93
2019-01-13T19:20:19.925Z,1.73
2019-01-13T19:25:17.333Z,2.30
2019-01-13T19:30:16.157Z,2.20
2019-01-13T19:35:15.364Z,3.40
2019-01-13T19:40:17.889Z,2.83
2019-01-13T19:45:16.731Z,2.00
2019-01-13T19:50:16.549Z,1.77
2019-01-13T19:55:17.219Z,1.93
2019-01-13T20:00:16.932Z,1.73
2019-01-13T20:05:12.893Z,1.40
2019-01-13T20:10:10.995Z,1.57
2019-01-13T20:15:12.924Z,1.43
2019-01-13T20:20:12.023Z,1.40
2019-01-13T20:25:10.624Z,1.30
2019-01-13T20:30:13.533Z,1.20
2019-01-13T20:35:09.424Z,1.20
2019-01-13T20:40:08.526Z,1.60
2019-01-13T20:45:08.224Z,1.90
2019-01-13T20:50:15.233Z,3.60
2019-01-13T20:55:13.293Z,2.17
2019-01-13T21:00:15.584Z,2.33
2019-01-13T21:05:13.133Z,2.10
2019-01-13T21:10:12.199Z,1.50
2019-01-13T21:15:11.494Z,1.57
2019-01-13T21:20:08.987Z,2.07
2019-01-13T21:25:10.894Z,1.10
2019-01-13T21:30:16.603Z,1.77
2019-01-13T21:35:12.700Z,2.10
2019-01-13T21:40:11.289Z,1.90
2019-01-13T21:45:13.110Z,3.10
2019-01-13T21:50:12.010Z,1.50
2019-01-13T21:55:10.601Z,4.13
2019-01-13T22:00:10.125Z,2.53
2019-01-13T22:05:07.921Z,2.10
2019-01-13T22:10:07.619Z,2.37
2019-01-13T22:15:05.916Z,2.53
2019-01-13T22:20:04.820Z,2.00
2019-01-13T22:25:00.768Z,3.63
2019-01-13T22:29:56.659Z,2.43
2019-01-13T22:34:52.558Z,1.70
2019-01-13T22:39:48.456Z,3.07
2019-01-13T22:44:44.346Z,2.70
2019-01-13T22:49:41.120Z,3.20
2019-01-13T22:54:36.971Z,3.10
2019-01-13T22:59:32.901Z,2.80
2019-01-13T23:04:28.790Z,1.03
2019-01-13T23:09:24.694Z,2.20
2019-01-13T23:14:20.582Z,2.47
2019-01-13T23:19:19.504Z,3.57
2019-01-13T23:24:15.402Z,1.87
2019-01-13T23:29:11.300Z,2.70
2019-01-13T23:34:07.199Z,3.40
2019-01-13T23:39:06.414Z,1.90
2019-01-13T23:44:02.982Z,3.57
2019-01-13T23:49:04.299Z,2.90
2019-01-13T23:54:00.194Z,1.57
2019-01-13T23:58:56.222Z,2.80
